»·PEaware :: WAT169 KLAS-KSAN

WAT169 :: KLAS-KSAN

FLIGHT INFORMATION

Flight Status: Arrived
Operator:
Walker Air Transport
More flights by this operator :: More flights under this callsign
Pilot: Marty P. (27464)
Aircraft: BOEING 737-800
(B738)
More flights by this aircraft type
Origin: KLAS McCarran Intl
United States
Destination: KSAN San Diego Intl-Lindbergh
United States
More flights between these airports :: More routes between these airports
Route: +BOACH8 LVELL LUCKI1
File this flight plan on PilotEdge
Remarks:
Altitude:
(Current/Filed)
28,000ft
Speed:
(Current/Filed)
470kts
Departed: 04-May-20 07:50 PM
Arrived: 04-May-20 08:36 PM
Distance/Time
Traveled:
225nm/0:46
Distance/Time
To Go:
Arrived

Flight Plot

Page will automatically refresh every two minutes.

Flight plan parsing failed; only flown route is shown


Map Options




Map Legend


Flown Route
Filed Route
Departure Airport
Arrival Airport
Navaid (VOR, NDB)
Fix

Horizontal Profiles

Position Reports

Time Latitude Longitude Heading Altitude Ground
Speed
04-May-20 19:10 36.081009 -115.147654 61 2191ft 0kts
04-May-20 19:11 36.081009 -115.147654 61 2191ft 0kts
04-May-20 19:12 36.081009 -115.147654 61 2191ft 0kts
04-May-20 19:13 36.081009 -115.147654 61 2191ft 0kts
04-May-20 19:14 36.081009 -115.147654 61 2191ft 0kts
04-May-20 19:15 36.081009 -115.147654 61 2191ft 0kts
04-May-20 19:16 36.081009 -115.147654 61 2191ft 0kts
04-May-20 19:17 36.081009 -115.147654 61 2191ft 0kts
04-May-20 19:18 36.081009 -115.147654 61 2191ft 0kts
04-May-20 19:19 36.081009 -115.147654 61 2191ft 0kts
04-May-20 19:20 36.081009 -115.147654 61 2191ft 0kts
04-May-20 19:21 36.081009 -115.147654 61 2191ft 0kts
04-May-20 19:22 36.081009 -115.147654 61 2191ft 0kts
04-May-20 19:23 36.081009 -115.147655 61 2191ft 0kts
04-May-20 19:24 36.081009 -115.147655 61 2191ft 0kts
04-May-20 19:25 36.081009 -115.147655 61 2191ft 0kts
04-May-20 19:26 36.081009 -115.147655 61 2191ft 0kts
04-May-20 19:27 36.081009 -115.147655 61 2191ft 0kts
04-May-20 19:28 36.081009 -115.147655 61 2191ft 0kts
04-May-20 19:29 36.081009 -115.147655 61 2191ft 0kts
04-May-20 19:30 36.081009 -115.147655 61 2191ft 0kts
04-May-20 19:31 36.081009 -115.147655 61 2191ft 0kts
04-May-20 19:32 36.081009 -115.147655 61 2191ft 0kts
04-May-20 19:33 36.081009 -115.147655 61 2191ft 0kts
04-May-20 19:34 36.081009 -115.147655 61 2191ft 0kts
04-May-20 19:35 36.081009 -115.147655 61 2191ft 0kts
04-May-20 19:36 36.081008 -115.147655 61 2191ft 0kts
04-May-20 19:37 36.081010 -115.148342 121 2191ft 2kts
04-May-20 19:38 36.081298 -115.148649 158 2191ft 0kts
04-May-20 19:39 36.081298 -115.148649 158 2191ft 0kts
04-May-20 19:40 36.081023 -115.148491 155 2191ft 0kts
04-May-20 19:41 36.080998 -115.148476 155 2191ft 0kts
04-May-20 19:42 36.078636 -115.147054 132 2191ft 11kts
04-May-20 19:43 36.078273 -115.142263 90 2191ft 19kts
04-May-20 19:44 36.078267 -115.135817 89 2191ft 17kts
04-May-20 19:45 36.078276 -115.132570 90 2191ft 18kts
04-May-20 19:46 36.078279 -115.127322 90 2191ft 14kts
04-May-20 19:47 36.078249 -115.122987 96 2191ft 9kts
04-May-20 19:48 36.076748 -115.121297 187 2191ft 11kts
04-May-20 19:49 36.076431 -115.153986 272 2731ft 179kts
04-May-20 19:50 36.072858 -115.226411 250 4525ft 261kts
04-May-20 19:51 36.016099 -115.281718 200 6977ft 275kts
04-May-20 19:52 35.943594 -115.305607 186 8522ft 277kts
04-May-20 19:53 35.868759 -115.313652 188 12009ft 276kts
04-May-20 19:54 35.786519 -115.307293 179 13667ft 338kts
04-May-20 19:55 35.683960 -115.295560 181 15251ft 382kts
04-May-20 19:56 35.577300 -115.298547 187 17582ft 392kts
04-May-20 19:57 35.466806 -115.303064 187 19746ft 403kts
04-May-20 19:58 35.353665 -115.307557 187 21681ft 414kts
04-May-20 19:59 35.236968 -115.312183 187 23025ft 428kts
04-May-20 20:00 35.119829 -115.316745 187 23028ft 422kts
04-May-20 20:01 35.001195 -115.321409 187 24470ft 430kts
04-May-20 20:02 34.882133 -115.326087 187 25933ft 439kts
04-May-20 20:03 34.761824 -115.349055 199 27339ft 438kts
04-May-20 20:04 34.645819 -115.392510 203 27991ft 439kts
04-May-20 20:05 34.529551 -115.441689 204 28085ft 449kts
04-May-20 20:06 34.410797 -115.493052 204 28091ft 458kts
04-May-20 20:07 34.295695 -115.557204 213 28067ft 455kts
04-May-20 20:08 34.182000 -115.624486 207 28054ft 459kts
04-May-20 20:09 34.065899 -115.682049 205 28028ft 460kts
04-May-20 20:10 33.947310 -115.738716 205 28027ft 461kts
04-May-20 20:11 33.835069 -115.793079 206 28018ft 397kts
04-May-20 20:12 33.734877 -115.841930 205 28029ft 397kts
04-May-20 20:13 33.633903 -115.889045 205 26558ft 383kts
04-May-20 20:14 33.538237 -115.938284 218 24442ft 364kts
04-May-20 20:15 33.470702 -116.024758 235 24006ft 363kts
04-May-20 20:16 33.412375 -116.122197 236 23936ft 354kts
04-May-20 20:17 33.356611 -116.217058 233 21847ft 346kts
04-May-20 20:18 33.279754 -116.284471 210 19774ft 346kts
04-May-20 20:19 33.195319 -116.333478 209 18015ft 333kts
04-May-20 20:20 33.113385 -116.381332 209 16142ft 326kts
04-May-20 20:21 33.032852 -116.428343 209 14329ft 319kts
04-May-20 20:22 32.961721 -116.488120 223 12457ft 312kts
04-May-20 20:23 32.896601 -116.554189 222 10651ft 308kts
04-May-20 20:24 32.836854 -116.614294 223 9940ft 256kts
04-May-20 20:25 32.779095 -116.673988 230 8550ft 277kts
04-May-20 20:26 32.739277 -116.750791 242 7124ft 265kts
04-May-20 20:27 32.706080 -116.823021 249 5878ft 235kts
04-May-20 20:28 32.684176 -116.890579 251 4837ft 215kts
04-May-20 20:29 32.676353 -116.953470 285 4059ft 176kts
04-May-20 20:30 32.689283 -117.007976 287 3358ft 157kts
04-May-20 20:31 32.700966 -117.055668 287 2470ft 151kts
04-May-20 20:32 32.712819 -117.104297 287 1519ft 154kts
04-May-20 20:33 32.724820 -117.153402 287 735ft 156kts
04-May-20 20:34 32.735059 -117.195813 285 27ft 45kts
04-May-20 20:35 32.734105 -117.199643 194 27ft 9kts
04-May-20 20:36 32.733467 -117.200679 261 27ft 0kts

Navigation Log

Ident Type
Flight plan parsing failed, navigation log unavailable